createdAt,value
2023-05-20T00:00:02.828Z,18.17
2023-05-20T00:02:33.881Z,18.15
2023-05-20T00:05:02.795Z,18.12
2023-05-20T00:07:31.252Z,18.20
2023-05-20T00:09:59.920Z,18.11
2023-05-20T00:12:29.888Z,18.13
2023-05-20T00:14:58.340Z,18.05
2023-05-20T00:17:28.362Z,18.17
2023-05-20T00:19:57.152Z,18.15
2023-05-20T00:22:27.597Z,18.05
2023-05-20T00:24:55.894Z,17.89
2023-05-20T00:27:24.523Z,17.72
2023-05-20T00:29:54.388Z,17.67
2023-05-20T00:32:22.896Z,17.43
2023-05-20T00:34:56.948Z,17.47
2023-05-20T00:37:25.566Z,17.72
2023-05-20T00:39:54.294Z,18.12
2023-05-20T00:42:22.779Z,17.91
2023-05-20T00:44:51.828Z,17.99
2023-05-20T00:47:22.553Z,18.13
2023-05-20T00:49:51.585Z,18.27
2023-05-20T00:52:20.589Z,18.27
2023-05-20T00:54:48.955Z,18.26
2023-05-20T00:57:17.458Z,18.25
2023-05-20T00:59:46.134Z,18.24
2023-05-20T01:02:14.527Z,18.23
2023-05-20T01:04:47.287Z,18.22
2023-05-20T01:07:17.913Z,18.26
2023-05-20T01:09:46.626Z,18.03
2023-05-20T01:12:19.258Z,18.00
2023-05-20T01:14:49.818Z,17.92
2023-05-20T01:17:20.950Z,17.99
2023-05-20T01:19:51.075Z,17.89
2023-05-20T01:22:19.406Z,17.78
2023-05-20T01:24:49.433Z,17.73
2023-05-20T01:27:20.556Z,17.67
2023-05-20T01:29:50.568Z,17.54
2023-05-20T01:32:20.535Z,17.61
2023-05-20T01:34:49.023Z,17.56
2023-05-20T01:37:17.714Z,17.62
2023-05-20T01:39:46.412Z,17.63
2023-05-20T01:42:16.192Z,17.60
2023-05-20T01:44:44.604Z,17.43
2023-05-20T01:47:13.322Z,17.52
2023-05-20T01:49:43.228Z,17.53
2023-05-20T01:52:12.786Z,17.48
2023-05-20T01:54:41.346Z,17.41
2023-05-20T01:57:13.222Z,17.53
2023-05-20T01:59:43.443Z,17.44
2023-05-20T02:02:12.880Z,17.31
2023-05-20T02:04:42.582Z,17.39
2023-05-20T02:07:10.953Z,17.31
2023-05-20T02:09:39.316Z,17.34
2023-05-20T02:12:08.488Z,17.21
2023-05-20T02:14:37.068Z,17.54
2023-05-20T02:17:06.855Z,17.67
2023-05-20T02:19:35.678Z,17.44
2023-05-20T02:22:04.358Z,17.49
2023-05-20T02:24:32.771Z,17.42
2023-05-20T02:27:01.796Z,17.40
2023-05-20T02:29:30.445Z,17.46
2023-05-20T02:31:58.809Z,17.36
2023-05-20T02:34:30.320Z,17.35
2023-05-20T02:36:59.201Z,17.68
2023-05-20T02:39:31.017Z,17.68
2023-05-20T02:41:59.738Z,17.83
2023-05-20T02:44:28.085Z,17.44
2023-05-20T02:46:56.501Z,17.40
2023-05-20T02:49:25.376Z,17.30
2023-05-20T02:51:55.177Z,17.06
2023-05-20T02:54:25.805Z,17.27
2023-05-20T02:56:54.471Z,17.10
2023-05-20T02:59:22.862Z,17.05
2023-05-20T03:01:51.317Z,17.09
2023-05-20T03:04:21.781Z,16.72
2023-05-20T03:06:52.094Z,17.15
2023-05-20T03:09:22.123Z,17.27
2023-05-20T03:11:50.486Z,17.13
2023-05-20T03:14:18.904Z,17.19
2023-05-20T03:16:47.607Z,17.52
2023-05-20T03:19:16.388Z,17.48
2023-05-20T03:21:46.641Z,17.07
2023-05-20T03:24:16.048Z,17.08
2023-05-20T03:26:49.563Z,17.34
2023-05-20T03:29:19.091Z,17.34
2023-05-20T03:31:48.226Z,17.38
2023-05-20T03:34:16.831Z,16.78
2023-05-20T03:36:46.234Z,17.34
2023-05-20T03:39:14.674Z,16.99
2023-05-20T03:41:43.369Z,16.85
2023-05-20T03:44:13.615Z,17.11
2023-05-20T03:46:42.181Z,16.71
2023-05-20T03:49:10.536Z,17.01
2023-05-20T03:51:39.196Z,16.82
2023-05-20T03:54:07.848Z,16.84
2023-05-20T03:56:36.414Z,16.49
2023-05-20T03:59:05.655Z,16.85
2023-05-20T04:01:35.526Z,17.24
2023-05-20T04:04:04.518Z,16.91
2023-05-20T04:06:33.044Z,16.90
2023-05-20T04:09:01.815Z,16.94
2023-05-20T04:11:30.817Z,17.16
2023-05-20T04:14:00.440Z,17.13
2023-05-20T04:16:29.962Z,16.92
2023-05-20T04:19:01.063Z,16.88
2023-05-20T04:21:29.491Z,17.41
2023-05-20T04:23:57.919Z,16.86
2023-05-20T04:26:26.835Z,17.67
2023-05-20T04:28:55.531Z,18.01
2023-05-20T04:31:26.801Z,18.53
2023-05-20T04:33:55.658Z,18.28
2023-05-20T04:36:28.762Z,18.47
2023-05-20T04:38:57.917Z,18.80
2023-05-20T04:41:27.433Z,18.65
2023-05-20T04:43:59.847Z,18.89
2023-05-20T04:46:28.810Z,19.00
2023-05-20T04:48:57.322Z,18.97
2023-05-20T04:51:27.065Z,20.14
2023-05-20T04:53:56.423Z,19.96
2023-05-20T04:56:26.137Z,20.29
2023-05-20T04:58:56.143Z,20.25
2023-05-20T05:01:24.831Z,20.61
2023-05-20T05:03:53.304Z,20.49
2023-05-20T05:06:22.813Z,19.92
2023-05-20T05:08:52.753Z,19.72
2023-05-20T05:11:21.189Z,20.22
2023-05-20T05:13:49.614Z,20.62
2023-05-20T05:16:19.196Z,20.83
2023-05-20T05:18:47.731Z,20.01
2023-05-20T05:21:16.307Z,19.97
2023-05-20T05:23:46.337Z,20.72
2023-05-20T05:26:16.240Z,20.33
2023-05-20T05:28:45.427Z,19.86
2023-05-20T05:31:14.787Z,20.29
2023-05-20T05:33:43.222Z,20.65
2023-05-20T05:36:11.975Z,20.24
2023-05-20T05:38:40.414Z,19.98
2023-05-20T05:41:08.879Z,20.16
2023-05-20T05:43:38.961Z,20.41
2023-05-20T05:46:09.645Z,20.52
2023-05-20T05:48:39.096Z,20.40
2023-05-20T05:51:07.468Z,20.99
2023-05-20T05:53:36.836Z,20.71
2023-05-20T05:56:05.886Z,21.08
2023-05-20T05:58:34.245Z,20.52
2023-05-20T06:01:04.000Z,20.42
2023-05-20T06:03:32.815Z,20.37
2023-05-20T06:06:01.243Z,20.00
2023-05-20T06:08:29.914Z,19.66
2023-05-20T06:10:58.680Z,19.79
2023-05-20T06:13:30.109Z,19.68
2023-05-20T06:15:58.769Z,19.56
2023-05-20T06:18:28.850Z,19.57
2023-05-20T06:20:57.951Z,19.80
2023-05-20T06:23:26.779Z,19.39
2023-05-20T06:25:58.575Z,19.22
2023-05-20T06:28:27.427Z,19.22
2023-05-20T06:30:55.958Z,19.80
2023-05-20T06:33:26.071Z,19.43
2023-05-20T06:35:57.323Z,19.98
2023-05-20T06:38:25.770Z,19.81
2023-05-20T06:40:54.251Z,20.07
2023-05-20T06:43:25.378Z,20.23
2023-05-20T06:45:54.294Z,20.54
2023-05-20T06:48:23.186Z,19.79
2023-05-20T06:50:51.614Z,20.19
2023-05-20T06:53:21.555Z,19.49
2023-05-20T06:55:50.247Z,19.76
2023-05-20T06:58:18.662Z,20.36
2023-05-20T07:00:47.872Z,20.02
2023-05-20T07:03:17.074Z,20.51
2023-05-20T07:05:45.909Z,21.04
2023-05-20T07:08:15.526Z,20.89
2023-05-20T07:10:45.866Z,20.74
2023-05-20T07:13:16.326Z,20.94
2023-05-20T07:15:47.402Z,20.90
2023-05-20T07:18:16.553Z,20.67
2023-05-20T07:20:45.514Z,20.80
2023-05-20T07:23:15.778Z,20.83
2023-05-20T07:25:46.136Z,20.71
2023-05-20T07:28:16.514Z,20.45
2023-05-20T07:30:50.099Z,20.84
2023-05-20T07:33:19.336Z,20.62
2023-05-20T07:35:48.992Z,21.48
2023-05-20T07:38:17.413Z,21.51
2023-05-20T07:40:48.148Z,21.01
2023-05-20T07:43:18.195Z,21.18
2023-05-20T07:45:47.925Z,21.42
2023-05-20T07:48:16.748Z,21.40
2023-05-20T07:50:45.328Z,21.51
2023-05-20T07:53:13.819Z,21.57
2023-05-20T07:55:42.522Z,21.88
2023-05-20T07:58:15.642Z,21.67
2023-05-20T08:00:44.931Z,22.20
2023-05-20T08:03:14.269Z,22.12
2023-05-20T08:05:43.606Z,22.05
2023-05-20T08:08:12.052Z,22.42
2023-05-20T08:10:41.131Z,22.20
2023-05-20T08:13:09.536Z,21.87
2023-05-20T08:15:40.291Z,22.67
2023-05-20T08:18:09.258Z,22.92
2023-05-20T08:20:37.699Z,22.94
2023-05-20T08:23:06.563Z,22.90
2023-05-20T08:25:36.044Z,22.26
2023-05-20T08:28:05.972Z,21.90
2023-05-20T08:30:35.078Z,22.00
2023-05-20T08:33:05.418Z,21.81
2023-05-20T08:35:34.299Z,21.87
2023-05-20T08:38:02.850Z,22.04
2023-05-20T08:40:35.178Z,21.69
2023-05-20T08:43:03.720Z,22.17
2023-05-20T08:45:34.311Z,22.11
2023-05-20T08:48:04.928Z,22.08
2023-05-20T08:50:34.986Z,21.82
2023-05-20T08:53:03.337Z,22.17
2023-05-20T08:55:32.456Z,22.04
2023-05-20T08:58:01.136Z,22.13
2023-05-20T09:00:29.544Z,22.21
2023-05-20T09:03:00.747Z,22.43
2023-05-20T09:05:29.925Z,22.26
2023-05-20T09:08:10.665Z,22.44
2023-05-20T09:10:39.628Z,22.53
2023-05-20T09:13:08.441Z,22.60
2023-05-20T09:15:37.170Z,23.32
2023-05-20T09:18:07.599Z,22.94
2023-05-20T09:20:37.247Z,23.31
2023-05-20T09:23:07.722Z,23.31
2023-05-20T09:25:38.722Z,23.76
2023-05-20T09:28:07.887Z,23.73
2023-05-20T09:30:40.655Z,23.68
2023-05-20T09:33:09.581Z,23.74
2023-05-20T09:35:38.674Z,23.68
2023-05-20T09:38:08.711Z,23.80
2023-05-20T09:40:40.438Z,23.90
2023-05-20T09:43:09.103Z,23.80
2023-05-20T09:45:38.533Z,24.00
2023-05-20T09:48:07.114Z,23.74
2023-05-20T09:50:35.658Z,23.78
2023-05-20T09:53:05.139Z,23.22
2023-05-20T09:55:35.672Z,23.86
2023-05-20T09:58:04.573Z,24.05
2023-05-20T10:00:33.086Z,24.03
2023-05-20T10:03:01.906Z,24.56
2023-05-20T10:05:30.901Z,24.08
2023-05-20T10:08:13.650Z,24.34
2023-05-20T10:10:44.995Z,24.56
2023-05-20T10:13:15.968Z,24.22
2023-05-20T10:15:46.035Z,24.43
2023-05-20T10:18:17.246Z,24.53
2023-05-20T10:20:46.691Z,24.72
2023-05-20T10:23:21.723Z,25.58
2023-05-20T10:25:57.965Z,24.91
2023-05-20T10:28:29.462Z,25.32
2023-05-20T10:31:16.006Z,25.61
2023-05-20T10:33:44.606Z,25.05
2023-05-20T10:36:23.243Z,25.02
2023-05-20T10:38:55.533Z,25.57
2023-05-20T10:41:27.395Z,25.51
2023-05-20T10:44:03.150Z,25.36
2023-05-20T10:46:40.122Z,25.49
2023-05-20T10:49:23.247Z,25.54
2023-05-20T10:51:53.063Z,25.56
2023-05-20T10:54:21.645Z,25.68
2023-05-20T10:56:54.700Z,25.72
2023-05-20T10:59:23.336Z,26.43
2023-05-20T11:01:51.758Z,26.51
2023-05-20T11:04:20.652Z,27.37
2023-05-20T11:06:54.341Z,27.39
2023-05-20T11:09:22.998Z,26.83
2023-05-20T11:11:51.862Z,27.39
2023-05-20T11:14:22.268Z,27.96
2023-05-20T11:16:52.949Z,28.03
2023-05-20T11:19:21.941Z,28.27
2023-05-20T11:21:51.478Z,28.35
2023-05-20T11:24:24.247Z,28.89
2023-05-20T11:26:52.895Z,29.22
2023-05-20T11:29:22.615Z,28.78
2023-05-20T11:31:53.553Z,27.93
2023-05-20T11:34:25.759Z,28.34
2023-05-20T11:36:57.607Z,28.89
2023-05-20T11:39:26.980Z,27.85
2023-05-20T11:41:55.716Z,27.59
2023-05-20T11:44:25.537Z,27.09
2023-05-20T11:47:00.288Z,27.47
2023-05-20T11:49:28.838Z,27.63
2023-05-20T11:51:57.854Z,27.74
2023-05-20T11:54:26.412Z,27.09
2023-05-20T11:56:55.202Z,27.72
2023-05-20T11:59:26.312Z,28.38
2023-05-20T12:01:54.734Z,27.47
2023-05-20T12:04:23.585Z,26.88
2023-05-20T12:06:53.213Z,27.56
2023-05-20T12:09:22.578Z,28.43
2023-05-20T12:11:51.377Z,28.43
2023-05-20T12:14:19.780Z,27.19
2023-05-20T12:16:49.544Z,28.41
2023-05-20T12:19:18.218Z,28.00
2023-05-20T12:21:47.299Z,27.65
2023-05-20T12:24:15.695Z,28.23
2023-05-20T12:26:44.484Z,28.77
2023-05-20T12:29:13.351Z,27.88
2023-05-20T12:31:41.764Z,28.08
2023-05-20T12:34:11.774Z,27.48
2023-05-20T12:36:40.185Z,28.82
2023-05-20T12:39:09.490Z,29.16
2023-05-20T12:41:38.203Z,28.93
2023-05-20T12:44:06.801Z,28.98
2023-05-20T12:46:36.285Z,27.79
2023-05-20T12:49:05.154Z,28.46
2023-05-20T12:51:34.837Z,29.09
2023-05-20T12:54:03.144Z,29.10
2023-05-20T12:56:31.819Z,29.48
2023-05-20T12:59:00.206Z,29.27
2023-05-20T13:01:29.714Z,28.66
2023-05-20T13:03:58.308Z,28.46
2023-05-20T13:06:26.741Z,27.73
2023-05-20T13:08:56.480Z,28.02
2023-05-20T13:11:25.138Z,28.94
2023-05-20T13:13:54.958Z,28.69
2023-05-20T13:16:23.405Z,29.29
2023-05-20T13:18:54.783Z,29.03
2023-05-20T13:21:23.455Z,29.44
2023-05-20T13:23:52.101Z,29.46
2023-05-20T13:26:21.980Z,29.34
2023-05-20T13:28:50.348Z,28.70
2023-05-20T13:31:19.027Z,28.24
2023-05-20T13:33:47.396Z,28.14
2023-05-20T13:36:15.783Z,29.07
2023-05-20T13:38:44.434Z,29.30
2023-05-20T13:41:12.836Z,29.02
2023-05-20T13:43:42.691Z,28.37
2023-05-20T13:46:13.452Z,28.45
2023-05-20T13:48:41.841Z,29.50
2023-05-20T13:51:10.209Z,29.39
2023-05-20T13:53:40.024Z,30.28
2023-05-20T13:56:09.317Z,29.14
2023-05-20T13:58:37.713Z,28.69
2023-05-20T14:01:07.858Z,29.07
2023-05-20T14:03:37.545Z,29.26
2023-05-20T14:06:06.326Z,30.08
2023-05-20T14:08:34.690Z,30.09
2023-05-20T14:11:03.546Z,29.97
2023-05-20T14:13:32.187Z,29.59
2023-05-20T14:16:00.591Z,29.06
2023-05-20T14:18:30.677Z,28.65
2023-05-20T14:20:59.001Z,28.96
2023-05-20T14:23:27.375Z,29.40
2023-05-20T14:25:56.075Z,30.05
2023-05-20T14:28:24.432Z,30.68
2023-05-20T14:30:53.730Z,31.09
2023-05-20T14:33:22.380Z,31.02
2023-05-20T14:35:52.167Z,30.76
2023-05-20T14:38:21.464Z,30.62
2023-05-20T14:40:50.125Z,30.94
2023-05-20T14:43:18.492Z,30.94
2023-05-20T14:45:48.990Z,31.12
2023-05-20T14:48:17.711Z,31.35
2023-05-20T14:50:47.603Z,31.89
2023-05-20T14:53:19.415Z,31.82
2023-05-20T14:55:47.767Z,30.74
2023-05-20T14:58:16.057Z,30.16
2023-05-20T15:00:44.722Z,29.96
2023-05-20T15:03:13.364Z,29.99
2023-05-20T15:05:42.587Z,29.88
2023-05-20T15:08:11.606Z,30.11
2023-05-20T15:10:41.685Z,28.46
2023-05-20T15:13:12.050Z,29.21
2023-05-20T15:15:41.072Z,29.86
2023-05-20T15:18:09.477Z,29.29
2023-05-20T15:20:37.889Z,29.83
2023-05-20T15:23:06.546Z,29.44
2023-05-20T15:25:35.138Z,29.82
2023-05-20T15:28:05.156Z,30.43
2023-05-20T15:30:34.078Z,30.96
2023-05-20T15:33:02.975Z,30.97
2023-05-20T15:35:31.431Z,31.65
2023-05-20T15:38:00.100Z,31.88
2023-05-20T15:40:28.658Z,31.77
2023-05-20T15:42:58.480Z,32.26
2023-05-20T15:45:28.606Z,31.39
2023-05-20T15:47:57.034Z,31.54
2023-05-20T15:50:25.972Z,31.20
2023-05-20T15:52:54.740Z,30.80
2023-05-20T15:55:23.999Z,29.78
2023-05-20T15:57:52.510Z,30.22
2023-05-20T16:00:21.351Z,30.91
2023-05-20T16:02:51.464Z,30.25
2023-05-20T16:05:19.988Z,30.36
2023-05-20T16:07:48.365Z,30.80
2023-05-20T16:10:17.075Z,31.53
2023-05-20T16:12:45.606Z,31.93
2023-05-20T16:15:13.962Z,30.81
2023-05-20T16:17:42.672Z,30.25
2023-05-20T16:20:12.705Z,30.01
2023-05-20T16:22:41.114Z,30.01
2023-05-20T16:25:11.019Z,29.13
2023-05-20T16:27:39.395Z,29.47
2023-05-20T16:30:08.221Z,28.23
2023-05-20T16:32:36.861Z,28.35
2023-05-20T16:35:05.783Z,28.62
2023-05-20T16:37:35.746Z,28.49
2023-05-20T16:40:04.794Z,27.71
2023-05-20T16:42:33.102Z,27.40
2023-05-20T16:45:01.451Z,27.40
2023-05-20T16:47:30.138Z,26.44
2023-05-20T16:49:58.622Z,26.35
2023-05-20T16:52:27.044Z,26.24
2023-05-20T16:55:02.165Z,25.80
2023-05-20T16:57:30.651Z,26.06
2023-05-20T16:59:59.485Z,25.60
2023-05-20T17:02:27.912Z,25.94
2023-05-20T17:04:57.029Z,25.49
2023-05-20T17:07:25.716Z,25.36
2023-05-20T17:09:54.079Z,25.91
2023-05-20T17:12:23.831Z,25.87
2023-05-20T17:14:52.484Z,25.96
2023-05-20T17:17:21.305Z,25.65
2023-05-20T17:19:49.687Z,25.42
2023-05-20T17:22:19.852Z,25.81
2023-05-20T17:24:48.265Z,25.71
2023-05-20T17:27:16.646Z,25.19
2023-05-20T17:29:49.114Z,24.90
2023-05-20T17:32:17.434Z,24.47
2023-05-20T17:34:46.083Z,24.52
2023-05-20T17:37:14.498Z,24.98
2023-05-20T17:39:42.964Z,25.04
2023-05-20T17:42:11.692Z,24.35
2023-05-20T17:44:40.139Z,24.96
2023-05-20T17:47:09.806Z,25.07
2023-05-20T17:49:38.470Z,24.96
2023-05-20T17:52:07.365Z,25.15
2023-05-20T17:54:36.021Z,25.08
2023-05-20T17:57:04.847Z,24.99
2023-05-20T17:59:36.749Z,25.08
2023-05-20T18:02:06.227Z,24.79
2023-05-20T18:04:36.549Z,24.92
2023-05-20T18:07:08.961Z,24.65
2023-05-20T18:09:37.635Z,24.63
2023-05-20T18:12:06.406Z,24.70
2023-05-20T18:14:34.769Z,24.95
2023-05-20T18:17:03.436Z,24.95
2023-05-20T18:19:33.711Z,24.85
2023-05-20T18:22:03.553Z,24.64
2023-05-20T18:24:32.168Z,24.96
2023-05-20T18:27:00.591Z,24.74
2023-05-20T18:29:28.949Z,24.93
2023-05-20T18:31:57.730Z,24.63
2023-05-20T18:34:26.742Z,24.81
2023-05-20T18:36:55.103Z,24.68
2023-05-20T18:39:25.073Z,24.74
2023-05-20T18:41:53.479Z,24.61
2023-05-20T18:44:21.862Z,24.67
2023-05-20T18:46:53.888Z,24.57
2023-05-20T18:49:22.329Z,24.48
2023-05-20T18:51:53.383Z,24.38
2023-05-20T18:54:21.725Z,24.24
2023-05-20T18:56:52.546Z,24.06
2023-05-20T18:59:23.255Z,24.02
2023-05-20T19:01:52.885Z,23.92
2023-05-20T19:04:21.521Z,23.68
2023-05-20T19:06:49.889Z,23.60
2023-05-20T19:09:18.325Z,23.50
2023-05-20T19:11:46.957Z,23.58
2023-05-20T19:14:16.759Z,23.46
2023-05-20T19:16:45.090Z,23.25
2023-05-20T19:19:14.643Z,23.35
2023-05-20T19:21:44.267Z,23.18
2023-05-20T19:24:12.619Z,23.18
2023-05-20T19:26:41.287Z,23.13
2023-05-20T19:29:09.741Z,23.16
2023-05-20T19:31:43.015Z,23.05
2023-05-20T19:34:11.766Z,23.10
2023-05-20T19:36:42.562Z,23.13
2023-05-20T19:39:11.166Z,23.14
2023-05-20T19:41:39.900Z,22.93
2023-05-20T19:44:08.781Z,22.87
2023-05-20T19:46:37.236Z,22.75
2023-05-20T19:49:07.301Z,22.81
2023-05-20T19:51:35.892Z,22.80
2023-05-20T19:54:04.600Z,22.63
2023-05-20T19:56:33.247Z,21.75
2023-05-20T19:59:02.160Z,22.43
2023-05-20T20:01:30.784Z,22.37
2023-05-20T20:03:59.541Z,22.29
2023-05-20T20:06:29.317Z,22.46
2023-05-20T20:08:58.189Z,22.48
2023-05-20T20:11:26.892Z,22.37
2023-05-20T20:13:55.441Z,22.32
2023-05-20T20:16:23.987Z,22.13
2023-05-20T20:18:52.755Z,22.15
2023-05-20T20:21:21.191Z,22.19
2023-05-20T20:23:50.973Z,21.92
2023-05-20T20:26:22.709Z,22.22
2023-05-20T20:28:51.132Z,21.97
2023-05-20T20:31:19.827Z,21.98
2023-05-20T20:33:48.481Z,21.76
2023-05-20T20:36:17.091Z,21.57
2023-05-20T20:38:47.041Z,21.98
2023-05-20T20:41:17.187Z,21.64
2023-05-20T20:43:45.940Z,21.95
2023-05-20T20:46:15.416Z,21.43
2023-05-20T20:48:45.946Z,21.72
2023-05-20T20:51:15.114Z,21.65
2023-05-20T20:53:43.703Z,22.01
2023-05-20T20:56:12.090Z,21.71
2023-05-20T21:02:00.247Z,21.68
2023-05-20T21:04:28.863Z,21.65
2023-05-20T21:06:59.538Z,21.61
2023-05-20T21:09:29.747Z,22.02
2023-05-20T21:12:00.647Z,21.84
2023-05-20T21:14:30.669Z,21.69
2023-05-20T21:16:59.147Z,21.80
2023-05-20T21:19:27.976Z,21.80
2023-05-20T21:21:56.687Z,21.61
2023-05-20T21:24:25.027Z,21.47
2023-05-20T21:26:56.019Z,21.64
2023-05-20T21:29:24.642Z,21.72
2023-05-20T21:31:55.136Z,21.37
2023-05-20T21:34:23.548Z,21.01
2023-05-20T21:36:52.221Z,20.67
2023-05-20T21:39:20.552Z,21.14
2023-05-20T21:41:48.885Z,21.40
2023-05-20T21:44:17.657Z,21.39
2023-05-20T21:46:46.118Z,21.24
2023-05-20T21:49:15.860Z,21.52
2023-05-20T21:51:44.494Z,21.29
2023-05-20T21:54:12.855Z,21.43
2023-05-20T21:56:41.168Z,20.83
2023-05-20T21:59:09.864Z,20.95
2023-05-20T22:01:38.431Z,21.13
2023-05-20T22:04:07.526Z,21.30
2023-05-20T22:06:37.393Z,21.38
2023-05-20T22:09:05.926Z,20.68
2023-05-20T22:11:34.619Z,20.72
2023-05-20T22:14:03.232Z,21.30
2023-05-20T22:16:31.894Z,21.11
2023-05-20T22:19:02.740Z,20.94
2023-05-20T22:21:34.235Z,20.89
2023-05-20T22:24:09.622Z,21.22
2023-05-20T22:26:38.133Z,21.14
2023-05-20T22:29:06.651Z,20.55
2023-05-20T22:31:35.397Z,20.73
2023-05-20T22:34:04.573Z,20.59
2023-05-20T22:36:36.436Z,20.98
2023-05-20T22:39:06.995Z,21.09
2023-05-20T22:41:37.082Z,20.80
2023-05-20T22:44:05.775Z,20.78
2023-05-20T22:46:34.186Z,20.78
2023-05-20T22:49:06.523Z,20.83
2023-05-20T22:51:36.224Z,20.24
2023-05-20T22:54:04.879Z,20.82
2023-05-20T22:56:34.277Z,20.88
2023-05-20T22:59:04.310Z,20.48
2023-05-20T23:01:32.790Z,20.39
2023-05-20T23:04:01.302Z,20.24
2023-05-20T23:06:30.031Z,20.44
2023-05-20T23:08:58.326Z,20.39
2023-05-20T23:11:27.135Z,20.36
2023-05-20T23:13:55.896Z,20.21
2023-05-20T23:16:26.478Z,20.13
2023-05-20T23:18:55.071Z,20.12
2023-05-20T23:21:23.869Z,20.33
2023-05-20T23:23:52.214Z,20.21
2023-05-20T23:26:21.436Z,19.45
2023-05-20T23:28:50.076Z,19.62
2023-05-20T23:31:18.663Z,19.58
2023-05-20T23:33:48.622Z,19.83
2023-05-20T23:36:20.500Z,19.98
2023-05-20T23:38:48.870Z,19.76
2023-05-20T23:41:17.257Z,19.30
2023-05-20T23:43:45.836Z,19.95
2023-05-20T23:46:14.274Z,19.55
2023-05-20T23:51:14.866Z,19.79
2023-05-20T23:53:43.374Z,19.18
2023-05-20T23:56:11.736Z,18.91
2023-05-20T23:58:40.732Z,19.32
